Time;durP1;ratioP1;P1;durP2;ratioP2;P2;SDS_P1;SDS_P2;PMS_P1;PMS_P2;Temp;Humidity;BMP_temperature;BMP_pressure;BME280_temperature;BME280_humidity;BME280_pressure;Samples;Min_cycle;Max_cycle;Signal;HPM_P1;HPM_P2
2021/10/23 00:01:23;;;;;;;;;;;;;;;8.51;90.91;99996.16;4994048;28;830;-58
2021/10/23 00:03:49;;;;;;;;;;;;;;;8.53;90.78;99988.25;4994004;28;815;-58
2021/10/23 00:06:16;;;;;;;;;;;;;;;8.58;90.78;99998.16;4993743;28;895;-57
2021/10/23 00:08:43;;;;;;;;;;;;;;;8.61;90.74;99991.84;4993783;28;939;-57
2021/10/23 00:11:09;;;;;;;;;;;;;;;8.63;90.71;99994.25;4993800;28;815;-58
2021/10/23 00:13:35;;;;;;;;;;;;;;;8.66;90.61;99994.25;4993796;28;862;-58
2021/10/23 00:16:01;;;;;;;;;;;;;;;8.68;90.61;99988.34;4993695;28;1022;-58
2021/10/23 00:18:27;;;;;;;;;;;;;;;8.66;90.52;99987.94;4993115;28;1971;-58
2021/10/23 00:20:54;;;;;;;;;;;;;;;8.63;90.47;99988.72;4993645;28;831;-58
2021/10/23 00:23:21;;;;;;;;;;;;;;;8.55;90.36;99982.38;4993803;28;896;-58
2021/10/23 00:25:47;;;;;;;;;;;;;;;8.48;90.48;99983.13;4993876;28;815;-58
2021/10/23 00:28:14;;;;;;;;;;;;;;;8.45;90.66;99989.41;4993448;28;850;-58
2021/10/23 00:30:41;;;;;;;;;;;;;;;8.41;90.33;99994.09;4993445;28;886;-58
2021/10/23 00:33:08;;;;;;;;;;;;;;;8.35;90.23;99996.38;4993290;28;847;-57
2021/10/23 00:35:34;;;;;;;;;;;;;;;8.33;90.73;99995.19;4993305;28;1209;-58
2021/10/23 00:38:01;;;;;;;;;;;;;;;8.29;90.69;99994.38;4993715;28;967;-57
2021/10/23 00:40:28;;;;;;;;;;;;;;;8.26;90.81;100000.66;4976006;28;1878;-58
2021/10/23 00:42:55;;;;;;;;;;;;;;;8.27;90.76;99997.50;4993279;28;930;-58
2021/10/23 00:45:22;;;;;;;;;;;;;;;8.23;90.66;99996.69;4993398;28;791;-57
2021/10/23 00:47:49;;;;;;;;;;;;;;;8.23;91.07;100001.41;4993165;28;922;-58
2021/10/23 00:50:15;;;;;;;;;;;;;;;8.19;90.93;100001.38;4993396;28;795;-58
2021/10/23 00:52:42;;;;;;;;;;;;;;;8.15;90.95;100004.13;4993228;28;807;-58
2021/10/23 00:55:09;;;;;;;;;;;;;;;8.11;90.93;100002.50;4993104;28;820;-57
2021/10/23 00:57:34;;;;;;;;;;;;;;;8.08;91.15;99992.25;4993357;28;843;-58
2021/10/23 01:00:01;;;;;;;;;;;;;;;8.10;91.12;99992.66;4992780;28;1981;-57
2021/10/23 01:02:28;;;;;;;;;;;;;;;8.11;91.03;99991.50;4993136;28;811;-58
2021/10/23 01:04:54;;;;;;;;;;;;;;;8.05;90.67;99995.75;4992718;28;863;-58
2021/10/23 01:07:21;;;;;;;;;;;;;;;7.96;90.39;99998.84;4992780;28;867;-58
2021/10/23 01:09:48;;;;;;;;;;;;;;;7.93;90.49;99992.09;4992645;28;855;-57
2021/10/23 01:12:14;;;;;;;;;;;;;;;7.94;91.01;99990.94;4992734;28;788;-58
2021/10/23 01:14:43;;;;;;;;;;;;;;;7.98;90.69;99991.00;4992614;28;811;-58
2021/10/23 01:17:10;;;;;;;;;;;;;;;8.05;90.91;99982.00;4992786;28;978;-58
2021/10/23 01:19:37;;;;;;;;;;;;;;;8.06;90.73;99987.09;4992227;28;1910;-58
2021/10/23 01:22:04;;;;;;;;;;;;;;;8.02;90.76;99980.78;4992459;28;871;-58
2021/10/23 01:24:31;;;;;;;;;;;;;;;7.94;90.68;99982.69;4992917;28;847;-58
2021/10/23 01:26:58;;;;;;;;;;;;;;;7.90;90.47;99979.13;4992534;28;807;-58
2021/10/23 01:29:25;;;;;;;;;;;;;;;7.80;90.50;99966.06;4992248;28;811;-58
2021/10/23 01:31:54;;;;;;;;;;;;;;;7.71;90.23;99963.63;4992013;28;819;-57
2021/10/23 01:34:24;;;;;;;;;;;;;;;7.61;90.43;99966.28;4992602;28;881;-58
2021/10/23 01:36:52;;;;;;;;;;;;;;;7.48;90.59;99963.00;4992257;28;903;-58
2021/10/23 01:39:18;;;;;;;;;;;;;;;7.46;91.12;99965.34;4992183;28;1893;-58
2021/10/23 01:41:44;;;;;;;;;;;;;;;7.39;91.16;99976.28;4992345;28;819;-58
2021/10/23 01:44:12;;;;;;;;;;;;;;;7.39;91.26;99982.56;4992250;28;824;-58
2021/10/23 01:46:40;;;;;;;;;;;;;;;7.48;91.90;99972.03;4992289;28;887;-58
2021/10/23 01:49:07;;;;;;;;;;;;;;;7.48;91.58;99974.00;4992213;28;784;-58
2021/10/23 01:51:34;;;;;;;;;;;;;;;7.39;91.15;99974.31;4992145;28;962;-57
2021/10/23 01:54:04;;;;;;;;;;;;;;;7.38;91.38;99983.72;4992292;28;943;-58
2021/10/23 01:56:32;;;;;;;;;;;;;;;7.43;91.27;99988.09;4992111;28;858;-58
2021/10/23 01:58:59;;;;;;;;;;;;;;;7.39;91.21;99985.31;4992354;28;1945;-58
2021/10/23 02:01:26;;;;;;;;;;;;;;;7.31;91.51;99987.16;4974611;28;1168;-58
2021/10/23 02:03:53;;;;;;;;;;;;;;;7.29;91.20;99985.97;4974637;28;1864;-58
2021/10/23 02:06:20;;;;;;;;;;;;;;;7.28;91.63;99989.91;4992082;28;913;-58
2021/10/23 02:08:46;;;;;;;;;;;;;;;7.29;92.03;99986.75;4991980;28;923;-58
2021/10/23 02:11:13;;;;;;;;;;;;;;;7.37;92.57;99993.13;4991999;28;839;-58
2021/10/23 02:13:40;;;;;;;;;;;;;;;7.48;92.72;99980.28;4992061;28;839;-58
2021/10/23 02:16:07;;;;;;;;;;;;;;;7.67;92.85;99992.28;4991912;28;953;-58
2021/10/23 02:18:34;;;;;;;;;;;;;;;7.84;92.94;99990.84;4991731;28;2013;-58
2021/10/23 02:21:01;;;;;;;;;;;;;;;7.88;92.53;99995.22;4991936;28;804;-58
2021/10/23 02:23:27;;;;;;;;;;;;;;;7.93;92.20;99985.81;4991873;28;954;-58
2021/10/23 02:25:53;;;;;;;;;;;;;;;8.01;92.48;99989.44;4991727;28;902;-58
2021/10/23 02:28:20;;;;;;;;;;;;;;;8.03;92.19;99998.09;4991957;28;870;-58
2021/10/23 02:30:46;;;;;;;;;;;;;;;7.98;91.94;99999.25;4991984;28;823;-58
2021/10/23 02:33:13;;;;;;;;;;;;;;;7.84;91.56;99988.09;4992008;28;858;-58
2021/10/23 02:35:40;;;;;;;;;;;;;;;7.67;91.58;99995.81;4991816;28;815;-58
2021/10/23 02:38:06;;;;;;;;;;;;;;;7.63;91.85;99992.22;4991784;28;811;-58
2021/10/23 02:40:33;;;;;;;;;;;;;;;7.51;91.82;99993.31;4991732;28;1911;-58
2021/10/23 02:43:00;;;;;;;;;;;;;;;7.40;91.93;99994.34;4995099;28;862;-58
2021/10/23 02:45:27;;;;;;;;;;;;;;;7.31;92.45;100002.88;4995296;28;928;-58
2021/10/23 02:47:53;;;;;;;;;;;;;;;7.21;92.26;100006.28;4995197;28;961;-57
2021/10/23 02:50:20;;;;;;;;;;;;;;;7.10;92.34;99997.91;4995727;28;807;-58
2021/10/23 02:52:47;;;;;;;;;;;;;;;6.99;92.22;100000.53;4995221;28;882;-58
2021/10/23 02:55:14;;;;;;;;;;;;;;;6.88;91.76;100002.38;4995198;28;847;-58
2021/10/23 02:57:40;;;;;;;;;;;;;;;6.77;92.02;100002.22;4995165;28;923;-58
2021/10/23 03:00:08;;;;;;;;;;;;;;;6.72;92.01;99999.78;4995086;28;1953;-58
2021/10/23 03:02:33;;;;;;;;;;;;;;;6.69;92.00;100000.53;4995169;28;906;-58
2021/10/23 03:05:03;;;;;;;;;;;;;;;6.63;91.89;100000.06;4995232;28;931;-58
2021/10/23 03:07:33;;;;;;;;;;;;;;;6.69;92.50;99995.81;4995038;28;864;-58
2021/10/23 03:09:59;;;;;;;;;;;;;;;6.83;92.98;99994.44;4995011;28;800;-58
2021/10/23 03:12:27;;;;;;;;;;;;;;;6.96;92.74;99998.53;4994927;28;875;-57
2021/10/23 03:14:54;;;;;;;;;;;;;;;7.05;93.60;100001.78;4994836;28;795;-58
2021/10/23 03:17:20;;;;;;;;;;;;;;;7.12;93.12;99995.59;4994648;28;1008;-58
2021/10/23 03:19:47;;;;;;;;;;;;;;;7.20;93.31;100007.47;4994591;28;1906;-58
2021/10/23 03:22:14;;;;;;;;;;;;;;;7.20;93.12;100004.72;4994716;28;904;-58
2021/10/23 03:24:40;;;;;;;;;;;;;;;7.08;92.02;99992.81;4994613;28;870;-58
2021/10/23 03:27:07;;;;;;;;;;;;;;;6.91;91.67;99994.19;4994655;28;803;-58
2021/10/23 03:29:33;;;;;;;;;;;;;;;6.78;92.21;99998.28;4994553;28;858;-58
2021/10/23 03:32:00;;;;;;;;;;;;;;;6.67;91.99;99995.41;4994625;28;878;-58
2021/10/23 03:34:27;;;;;;;;;;;;;;;6.59;92.70;100006.66;4994500;28;1154;-57
2021/10/23 03:36:53;;;;;;;;;;;;;;;6.53;92.02;100001.50;4994698;28;807;-58
2021/10/23 03:39:20;;;;;;;;;;;;;;;6.48;92.53;100003.75;4994387;28;1886;-57
2021/10/23 03:41:47;;;;;;;;;;;;;;;6.40;92.56;100010.31;4994698;28;891;-58
2021/10/23 03:44:13;;;;;;;;;;;;;;;6.34;93.05;100015.34;4994301;28;909;-58
2021/10/23 03:46:40;;;;;;;;;;;;;;;6.32;92.71;100012.16;4994480;28;814;-58
2021/10/23 03:49:06;;;;;;;;;;;;;;;6.38;92.99;100007.94;4994566;28;815;-58
2021/10/23 03:51:33;;;;;;;;;;;;;;;6.42;93.63;100011.53;4994385;28;919;-57
2021/10/23 03:54:00;;;;;;;;;;;;;;;6.36;92.67;100002.03;4994095;28;823;-57
2021/10/23 03:56:27;;;;;;;;;;;;;;;6.27;92.11;100001.47;4994348;28;791;-58
2021/10/23 03:58:54;;;;;;;;;;;;;;;6.21;92.81;100000.19;4994161;28;1886;-57
2021/10/23 04:01:20;;;;;;;;;;;;;;;6.15;92.58;99999.75;4994240;28;811;-57
2021/10/23 04:03:46;;;;;;;;;;;;;;;6.10;92.45;99995.34;4994129;28;807;-57
2021/10/23 04:06:14;;;;;;;;;;;;;;;6.04;92.70;99999.56;4993882;28;847;-58
2021/10/23 04:08:40;;;;;;;;;;;;;;;6.00;92.29;100001.47;4994489;28;801;-57
2021/10/23 04:11:07;;;;;;;;;;;;;;;5.99;92.17;100007.31;4993692;28;846;-58
2021/10/23 04:13:34;;;;;;;;;;;;;;;6.01;92.83;100018.72;4993810;28;925;-57
2021/10/23 04:16:00;;;;;;;;;;;;;;;6.08;93.57;100016.06;4993657;28;1007;-58
2021/10/23 04:18:26;;;;;;;;;;;;;;;6.12;93.69;100012.25;4993721;28;1243;-58
2021/10/23 04:20:53;;;;;;;;;;;;;;;6.14;92.91;100009.13;4993914;28;1973;-58
2021/10/23 04:23:20;;;;;;;;;;;;;;;6.09;92.84;100012.19;4993538;28;910;-58
2021/10/23 04:25:45;;;;;;;;;;;;;;;6.04;92.88;100009.72;4993584;28;886;-58
2021/10/23 04:28:12;;;;;;;;;;;;;;;6.04;92.49;100001.50;4993435;28;788;-58
2021/10/23 04:30:38;;;;;;;;;;;;;;;6.08;93.68;100005.09;4993690;28;823;-58
2021/10/23 04:33:05;;;;;;;;;;;;;;;6.11;93.52;100001.63;4993419;28;922;-58
2021/10/23 04:35:31;;;;;;;;;;;;;;;6.20;93.80;99995.88;4993666;28;918;-58
2021/10/23 04:37:58;;;;;;;;;;;;;;;6.41;93.89;99995.44;4993350;28;848;-58
2021/10/23 04:40:24;;;;;;;;;;;;;;;6.48;93.34;100004.53;4993169;28;1911;-58
2021/10/23 04:42:51;;;;;;;;;;;;;;;6.66;94.10;100004.03;4993207;28;859;-58
2021/10/23 04:45:17;;;;;;;;;;;;;;;6.89;94.47;100001.19;4993110;28;926;-58
2021/10/23 04:47:44;;;;;;;;;;;;;;;7.04;94.50;100004.91;4993202;28;835;-58
2021/10/23 04:50:10;;;;;;;;;;;;;;;7.21;94.25;100006.28;4993008;28;885;-58
2021/10/23 04:52:37;;;;;;;;;;;;;;;7.34;94.18;100011.19;4993094;28;838;-58
2021/10/23 04:55:03;;;;;;;;;;;;;;;7.44;94.40;100026.22;4993018;28;870;-58
2021/10/23 04:57:30;;;;;;;;;;;;;;;7.54;94.26;100028.28;4992952;28;842;-58
2021/10/23 04:59:56;;;;;;;;;;;;;;;7.62;93.92;100031.09;4992904;28;1955;-58
2021/10/23 05:02:23;;;;;;;;;;;;;;;7.68;93.86;100033.16;4992936;28;839;-58
2021/10/23 05:04:50;;;;;;;;;;;;;;;7.73;94.04;100034.78;4991895;28;935;-58
2021/10/23 05:07:15;;;;;;;;;;;;;;;7.75;94.16;100040.69;4992962;28;819;-58
2021/10/23 05:09:41;;;;;;;;;;;;;;;7.75;94.06;100043.44;4992826;28;823;-58
2021/10/23 05:17:43;;;;;;;;;;;;;;;7.84;95.10;100040.41;5892239;23;1687;-70
2021/10/23 05:20:10;;;;;;;;;;;;;;;8.00;95.70;100046.47;4994532;28;1910;-68
2021/10/23 05:22:37;;;;;;;;;;;;;;;8.13;95.61;100056.00;5012285;28;841;-68
2021/10/23 05:25:04;;;;;;;;;;;;;;;8.23;95.80;100062.75;5012073;28;842;-68
2021/10/23 05:27:31;;;;;;;;;;;;;;;8.29;94.83;100069.50;5012151;28;794;-68
2021/10/23 05:29:59;;;;;;;;;;;;;;;8.37;95.21;100065.66;5012288;28;834;-68
2021/10/23 05:32:25;;;;;;;;;;;;;;;8.44;95.14;100064.16;5012186;28;834;-68
2021/10/23 05:34:52;;;;;;;;;;;;;;;8.54;95.35;100072.50;5012060;28;823;-68
2021/10/23 05:37:19;;;;;;;;;;;;;;;9.03;96.32;100067.72;5011918;28;865;-68
2021/10/23 05:39:45;;;;;;;;;;;;;;;9.48;94.32;100071.06;5011839;28;1914;-68
2021/10/23 05:42:11;;;;;;;;;;;;;;;9.61;92.74;100066.78;4994258;28;1441;-68
2021/10/23 05:44:38;;;;;;;;;;;;;;;9.60;91.86;100073.47;5011922;28;877;-69
2021/10/23 05:47:06;;;;;;;;;;;;;;;9.47;91.62;100077.75;5011963;28;802;-67
2021/10/23 05:49:32;;;;;;;;;;;;;;;9.51;91.94;100086.84;5011871;28;835;-67
2021/10/23 05:51:58;;;;;;;;;;;;;;;9.62;90.78;100084.13;5011812;28;811;-68
2021/10/23 05:54:26;;;;;;;;;;;;;;;9.86;90.56;100081.81;5011779;28;865;-68
2021/10/23 05:56:52;;;;;;;;;;;;;;;10.03;90.54;100092.13;5011795;28;893;-68
2021/10/23 05:59:21;;;;;;;;;;;;;;;10.16;89.82;100089.78;5011671;28;1959;-68
2021/10/23 06:01:55;;;;;;;;;;;;;;;10.14;89.90;100089.38;5011734;28;849;-68
2021/10/23 06:04:21;;;;;;;;;;;;;;;10.12;89.49;100100.03;5011701;28;826;-68
2021/10/23 06:06:48;;;;;;;;;;;;;;;10.08;89.66;100104.75;5011799;28;862;-68
2021/10/23 06:09:15;;;;;;;;;;;;;;;9.89;89.28;100098.41;5011760;28;866;-68
2021/10/23 06:11:41;;;;;;;;;;;;;;;9.85;89.72;100103.13;5011883;28;890;-68
2021/10/23 06:14:07;;;;;;;;;;;;;;;10.01;89.71;100106.31;5012140;28;803;-68
2021/10/23 06:16:34;;;;;;;;;;;;;;;10.17;88.32;100102.41;5013293;28;898;-68
2021/10/23 06:19:01;;;;;;;;;;;;;;;10.30;88.38;100105.59;5015294;28;1979;-68
2021/10/23 06:21:27;;;;;;;;;;;;;;;10.52;88.21;100111.91;5015494;28;873;-68
2021/10/23 06:23:54;;;;;;;;;;;;;;;10.90;87.16;100115.06;5015419;28;814;-68
2021/10/23 06:26:20;;;;;;;;;;;;;;;11.19;85.89;100116.59;5015318;28;838;-68
2021/10/23 06:28:47;;;;;;;;;;;;;;;11.68;84.40;100116.84;5015674;28;827;-68
2021/10/23 06:31:14;;;;;;;;;;;;;;;12.02;82.72;100117.09;5015300;28;898;-68
2021/10/23 06:33:40;;;;;;;;;;;;;;;12.37;80.08;100129.13;5015208;28;881;-67
2021/10/23 06:36:07;;;;;;;;;;;;;;;12.70;78.35;100138.00;5015220;28;933;-68
2021/10/23 06:38:34;;;;;;;;;;;;;;;12.94;76.38;100138.19;5015117;28;874;-68
2021/10/23 06:41:01;;;;;;;;;;;;;;;12.84;75.91;100137.88;5015088;28;1934;-68
2021/10/23 06:43:27;;;;;;;;;;;;;;;12.72;75.30;100141.16;5015073;28;803;-68
2021/10/23 06:45:54;;;;;;;;;;;;;;;12.69;75.04;100147.50;5014850;28;898;-68
2021/10/23 06:48:21;;;;;;;;;;;;;;;12.92;74.24;100148.91;5015017;28;815;-68
2021/10/23 06:50:47;;;;;;;;;;;;;;;13.14;74.01;100144.72;5015156;28;863;-68
2021/10/23 06:53:15;;;;;;;;;;;;;;;13.25;73.07;100152.97;5014846;28;854;-68
2021/10/23 06:55:42;;;;;;;;;;;;;;;13.33;72.80;100148.13;5015151;28;843;-68
2021/10/23 06:58:08;;;;;;;;;;;;;;;13.62;72.93;100152.19;5014879;28;830;-68
2021/10/23 07:00:35;;;;;;;;;;;;;;;14.14;70.88;100147.53;5014645;28;1886;-69
2021/10/23 07:03:02;;;;;;;;;;;;;;;14.60;70.37;100146.09;5014736;28;901;-68
2021/10/23 07:05:30;;;;;;;;;;;;;;;15.23;68.58;100137.06;5014689;28;807;-67
2021/10/23 07:07:56;;;;;;;;;;;;;;;15.60;67.56;100135.97;5014676;28;835;-68
2021/10/23 07:10:23;;;;;;;;;;;;;;;15.91;66.30;100142.09;5014620;28;870;-68
2021/10/23 07:12:51;;;;;;;;;;;;;;;16.27;65.19;100140.53;5014547;28;984;-67
2021/10/23 07:15:18;;;;;;;;;;;;;;;16.63;64.78;100137.69;4996678;28;1288;-67
2021/10/23 07:17:45;;;;;;;;;;;;;;;16.94;63.41;100138.13;5014515;28;1305;-67
2021/10/23 07:20:11;;;;;;;;;;;;;;;16.91;63.30;100132.63;5014613;28;1923;-67
2021/10/23 07:22:38;;;;;;;;;;;;;;;17.05;62.08;100128.69;5014362;28;874;-67
2021/10/23 07:25:05;;;;;;;;;;;;;;;17.23;62.06;100131.78;5014341;28;869;-67
2021/10/23 07:27:32;;;;;;;;;;;;;;;17.75;61.28;100136.31;5013814;28;893;-67
2021/10/23 07:29:59;;;;;;;;;;;;;;;18.02;59.60;100135.16;5013776;28;810;-67
2021/10/23 07:32:26;;;;;;;;;;;;;;;18.14;59.00;100136.41;5014505;28;894;-66
2021/10/23 07:34:52;;;;;;;;;;;;;;;18.25;59.21;100136.84;5014145;28;822;-67
2021/10/23 07:37:18;;;;;;;;;;;;;;;18.41;58.33;100141.53;5014100;28;881;-67
2021/10/23 07:39:45;;;;;;;;;;;;;;;18.42;57.85;100145.94;5014015;28;1886;-67
2021/10/23 07:42:12;;;;;;;;;;;;;;;18.37;57.96;100140.91;5013989;28;875;-66
2021/10/23 07:44:38;;;;;;;;;;;;;;;18.44;57.74;100149.06;5013852;28;885;-66
2021/10/23 07:47:05;;;;;;;;;;;;;;;18.22;57.41;100146.16;5013926;28;803;-66
2021/10/23 07:49:32;;;;;;;;;;;;;;;18.10;58.34;100147.69;5013800;28;886;-65
2021/10/23 07:51:58;;;;;;;;;;;;;;;17.96;57.98;100139.72;5013835;28;822;-65
2021/10/23 07:54:25;;;;;;;;;;;;;;;17.99;58.45;100143.66;5013753;28;822;-65
2021/10/23 07:56:51;;;;;;;;;;;;;;;18.21;58.97;100141.78;5013736;28;870;-65
2021/10/23 07:59:18;;;;;;;;;;;;;;;18.56;57.98;100151.06;5013611;28;1910;-65
2021/10/23 08:01:45;;;;;;;;;;;;;;;18.56;57.34;100144.66;5013683;28;806;-65
2021/10/23 08:04:12;;;;;;;;;;;;;;;18.39;57.93;100148.81;4995990;28;1299;-65
2021/10/23 08:06:39;;;;;;;;;;;;;;;18.59;58.75;100138.19;5013638;28;865;-66
2021/10/23 08:09:11;;;;;;;;;;;;;;;18.77;56.97;100143.19;5013477;28;858;-65
2021/10/23 08:11:40;;;;;;;;;;;;;;;18.87;57.30;100138.50;5013686;28;929;-66
2021/10/23 08:14:08;;;;;;;;;;;;;;;18.65;57.25;100130.78;5013336;28;992;-65
2021/10/23 08:16:35;;;;;;;;;;;;;;;18.66;57.29;100135.16;5013509;28;907;-65
2021/10/23 08:19:02;;;;;;;;;;;;;;;18.81;56.87;100143.13;5012992;28;1906;-66
2021/10/23 08:21:29;;;;;;;;;;;;;;;18.92;57.21;100130.31;5013166;28;820;-65
2021/10/23 08:23:55;;;;;;;;;;;;;;;19.26;56.92;100137.13;5013246;28;803;-66
2021/10/23 08:26:22;;;;;;;;;;;;;;;19.66;55.89;100132.94;4995586;28;1184;-66
2021/10/23 08:28:49;;;;;;;;;;;;;;;19.77;55.64;100124.91;5013088;28;819;-65
2021/10/23 08:31:15;;;;;;;;;;;;;;;20.18;54.99;100128.56;5013109;28;850;-65
2021/10/23 08:33:42;;;;;;;;;;;;;;;20.05;54.27;100125.84;5013057;28;846;-64
2021/10/23 08:36:08;;;;;;;;;;;;;;;19.82;55.78;100124.31;5013000;28;889;-65
2021/10/23 08:38:35;;;;;;;;;;;;;;;19.92;55.06;100127.97;5012905;28;862;-64
2021/10/23 08:41:03;;;;;;;;;;;;;;;19.96;55.29;100123.00;5012768;28;1914;-65
2021/10/23 08:43:30;;;;;;;;;;;;;;;20.23;54.93;100130.78;5012814;28;823;-67
2021/10/23 08:45:59;;;;;;;;;;;;;;;20.42;54.13;100131.63;5012914;28;930;-65
2021/10/23 08:48:25;;;;;;;;;;;;;;;20.51;54.07;100133.69;5012747;28;791;-66
2021/10/23 08:50:52;;;;;;;;;;;;;;;20.86;53.21;100123.00;5012697;28;779;-66
2021/10/23 08:53:19;;;;;;;;;;;;;;;21.10;52.96;100122.41;5012630;28;875;-65
2021/10/23 08:55:47;;;;;;;;;;;;;;;21.24;52.92;100127.41;5012691;28;819;-65
2021/10/23 08:58:16;;;;;;;;;;;;;;;21.44;52.16;100126.19;5012599;28;835;-65
2021/10/23 09:00:43;;;;;;;;;;;;;;;21.53;51.78;100123.34;5013092;28;1899;-65
2021/10/23 09:03:10;;;;;;;;;;;;;;;21.57;51.58;100121.97;5012905;28;778;-66
2021/10/23 09:05:37;;;;;;;;;;;;;;;21.64;51.61;100115.22;5013563;28;775;-66
2021/10/23 09:08:13;;;;;;;;;;;;;;;21.90;50.50;100109.22;5013129;28;834;-66
2021/10/23 09:10:45;;;;;;;;;;;;;;;22.18;50.25;100110.69;5012476;28;806;-67
2021/10/23 09:13:12;;;;;;;;;;;;;;;22.18;50.01;100112.72;5012324;28;846;-65
2021/10/23 09:15:40;;;;;;;;;;;;;;;22.33;50.19;100112.84;5012239;28;854;-66
2021/10/23 09:18:09;;;;;;;;;;;;;;;22.51;49.68;100109.13;5012433;28;1296;-66
2021/10/23 09:20:39;;;;;;;;;;;;;;;22.62;49.38;100110.19;5012164;28;1918;-67
2021/10/23 09:23:16;;;;;;;;;;;;;;;22.84;48.67;100111.91;5012494;28;854;-66
2021/10/23 09:25:43;;;;;;;;;;;;;;;23.13;49.00;100105.63;5012253;28;834;-66
2021/10/23 09:28:13;;;;;;;;;;;;;;;23.55;48.21;100098.97;5012076;28;795;-66
2021/10/23 09:30:49;;;;;;;;;;;;;;;23.58;47.90;100092.38;5012099;28;889;-65
2021/10/23 09:33:17;;;;;;;;;;;;;;;23.24;47.74;100096.63;5012094;28;878;-65
2021/10/23 09:35:44;;;;;;;;;;;;;;;23.15;48.16;100099.50;5012266;28;925;-66
2021/10/23 09:38:12;;;;;;;;;;;;;;;23.15;47.89;100093.84;5012285;28;870;-66
2021/10/23 09:40:41;;;;;;;;;;;;;;;23.24;47.68;100090.97;5012027;28;1889;-66
2021/10/23 09:43:13;;;;;;;;;;;;;;;23.74;46.58;100085.44;5011824;28;874;-66
2021/10/23 09:46:02;;;;;;;;;;;;;;;24.26;45.54;100085.03;5011895;28;819;-65
2021/10/23 09:48:31;;;;;;;;;;;;;;;24.57;45.38;100083.69;5011910;28;795;-65
2021/10/23 09:51:16;;;;;;;;;;;;;;;24.68;45.11;100085.88;5011312;28;795;-66
2021/10/23 09:53:44;;;;;;;;;;;;;;;24.84;44.87;100082.50;5011847;28;881;-65
2021/10/23 09:56:12;;;;;;;;;;;;;;;24.86;44.64;100080.72;5011820;28;819;-66
2021/10/23 09:58:50;;;;;;;;;;;;;;;24.88;44.38;100082.25;5011717;28;791;-66
2021/10/23 10:01:16;;;;;;;;;;;;;;;24.86;43.73;100086.38;5012587;28;759;-66
2021/10/23 10:03:43;;;;;;;;;;;;;;;25.08;43.66;100081.50;5011825;28;815;-66
2021/10/23 10:06:11;;;;;;;;;;;;;;;25.25;43.69;100076.81;5012058;28;804;-66
2021/10/23 10:08:38;;;;;;;;;;;;;;;25.23;42.95;100074.47;5011923;28;878;-67
2021/10/23 10:11:03;;;;;;;;;;;;;;;25.38;43.26;100074.38;5012465;28;806;-66
2021/10/23 10:13:32;;;;;;;;;;;;;;;25.19;42.65;100075.94;5011429;28;862;-67
2021/10/23 10:15:59;;;;;;;;;;;;;;;24.78;43.19;100088.06;5012083;28;1120;-66
2021/10/23 10:18:25;;;;;;;;;;;;;;;24.60;43.36;100091.16;5011605;28;1287;-66
2021/10/23 10:20:59;;;;;;;;;;;;;;;24.32;44.34;100085.09;5012373;28;1938;-66
2021/10/23 10:23:31;;;;;;;;;;;;;;;24.32;44.65;100087.91;5011655;28;859;-65
2021/10/23 10:26:13;;;;;;;;;;;;;;;23.91;45.14;100087.81;5011481;28;835;-66
2021/10/23 10:29:00;;;;;;;;;;;;;;;23.61;46.07;100090.63;5011472;28;969;-66
2021/10/23 10:31:44;;;;;;;;;;;;;;;23.35;46.64;100091.19;5001061;28;1227;-65
2021/10/23 10:34:16;;;;;;;;;;;;;;;23.14;47.08;100086.66;5011686;28;879;-65
2021/10/23 10:37:10;;;;;;;;;;;;;;;23.11;47.50;100091.25;5011398;28;819;-65
2021/10/23 10:39:54;;;;;;;;;;;;;;;23.34;47.25;100086.00;5011524;28;1945;-65
2021/10/23 10:45:25;;;;;;;;;;;;;;;23.56;47.31;100091.31;5011377;28;693;-65
2021/10/23 10:48:10;;;;;;;;;;;;;;;23.57;47.05;100084.38;5011260;28;1012;-65
2021/10/23 10:50:39;;;;;;;;;;;;;;;23.46;46.96;100089.84;5012282;28;760;-65
2021/10/23 10:53:23;;;;;;;;;;;;;;;23.33;45.04;100085.25;5011366;28;831;-66
2021/10/23 10:55:50;;;;;;;;;;;;;;;23.10;45.08;100094.53;5011137;28;854;-65
2021/10/23 10:58:17;;;;;;;;;;;;;;;23.06;45.51;100088.31;5011267;28;842;-65
2021/10/23 11:00:48;;;;;;;;;;;;;;;22.77;45.05;100093.34;5011152;28;1890;-65
2021/10/23 11:03:36;;;;;;;;;;;;;;;22.53;45.35;100096.16;5012001;28;854;-66
2021/10/23 11:06:26;;;;;;;;;;;;;;;22.41;45.63;100091.53;5014745;28;897;-66
2021/10/23 11:09:11;;;;;;;;;;;;;;;22.24;45.70;100093.19;4986502;28;1407;-65
2021/10/23 11:11:44;;;;;;;;;;;;;;;22.28;45.69;100085.34;5015001;28;810;-66
2021/10/23 11:14:39;;;;;;;;;;;;;;;22.30;45.87;100083.63;5014605;28;866;-66
2021/10/23 11:17:14;;;;;;;;;;;;;;;22.26;45.82;100097.09;5014722;28;950;-65
2021/10/23 11:19:42;;;;;;;;;;;;;;;22.30;45.44;100094.88;5014470;28;1902;-65
2021/10/23 11:22:09;;;;;;;;;;;;;;;22.32;45.47;100100.81;5014636;28;799;-65
2021/10/23 11:24:43;;;;;;;;;;;;;;;22.33;45.59;100099.53;5014652;28;799;-65
2021/10/23 11:27:26;;;;;;;;;;;;;;;22.51;45.45;100100.69;5014355;28;909;-66
2021/10/23 11:30:03;;;;;;;;;;;;;;;22.73;44.84;100100.41;5014276;28;787;-66
2021/10/23 11:32:30;;;;;;;;;;;;;;;22.77;44.72;100109.47;5014212;28;1021;-66
2021/10/23 11:34:56;;;;;;;;;;;;;;;22.83;44.50;100110.38;5014133;28;795;-66
2021/10/23 11:37:24;;;;;;;;;;;;;;;22.81;44.23;100107.25;5014108;28;854;-66
2021/10/23 11:40:03;;;;;;;;;;;;;;;22.80;44.61;100106.47;5014158;28;1882;-66
2021/10/23 11:42:31;;;;;;;;;;;;;;;22.84;44.48;100103.47;5013922;28;807;-66
2021/10/23 11:45:07;;;;;;;;;;;;;;;22.81;44.66;100101.63;5014019;28;901;-66
2021/10/23 11:47:34;;;;;;;;;;;;;;;22.77;44.62;100104.63;5014227;28;806;-66
2021/10/23 11:50:04;;;;;;;;;;;;;;;22.81;44.75;100105.22;5013927;28;827;-66
2021/10/23 11:52:31;;;;;;;;;;;;;;;22.79;44.58;100101.31;5013840;28;835;-66
2021/10/23 11:55:04;;;;;;;;;;;;;;;22.67;44.68;100105.16;5013859;28;897;-66
2021/10/23 11:57:32;;;;;;;;;;;;;;;22.65;45.20;100099.22;5013692;28;835;-66
2021/10/23 11:59:59;;;;;;;;;;;;;;;22.53;44.86;100095.38;5013701;28;1955;-66
2021/10/23 12:02:50;;;;;;;;;;;;;;;22.34;45.22;100091.88;5013653;28;886;-66
2021/10/23 12:05:24;;;;;;;;;;;;;;;22.19;45.40;100091.75;5013600;28;886;-67
2021/10/23 12:08:09;;;;;;;;;;;;;;;22.05;45.46;100103.72;5013521;28;833;-66
2021/10/23 12:10:54;;;;;;;;;;;;;;;21.85;45.63;100107.03;5013453;28;799;-66
2021/10/23 12:13:21;;;;;;;;;;;;;;;21.79;45.88;100101.28;5013396;28;843;-66
2021/10/23 12:16:06;;;;;;;;;;;;;;;21.74;46.04;100101.91;5013016;28;874;-67
2021/10/23 12:18:39;;;;;;;;;;;;;;;21.70;45.85;100104.91;5013119;28;1283;-67
2021/10/23 12:21:31;;;;;;;;;;;;;;;21.75;45.75;100109.13;5013205;28;1973;-66
2021/10/23 12:23:59;;;;;;;;;;;;;;;21.67;45.85;100108.66;5010947;28;1298;-66
2021/10/23 12:26:27;;;;;;;;;;;;;;;21.69;45.89;100100.53;5013180;28;526;-65
2021/10/23 12:29:07;;;;;;;;;;;;;;;21.74;45.65;100099.91;5013131;28;858;-65
2021/10/23 12:31:52;;;;;;;;;;;;;;;21.69;45.82;100102.56;5013141;28;862;-66
2021/10/23 12:34:18;;;;;;;;;;;;;;;21.73;45.78;100095.50;5013006;28;815;-66
2021/10/23 12:37:00;;;;;;;;;;;;;;;21.64;45.48;100101.16;5013066;28;859;-65
2021/10/23 12:39:29;;;;;;;;;;;;;;;21.56;45.98;100097.91;5012763;28;1981;-65
2021/10/23 12:41:56;;;;;;;;;;;;;;;21.61;46.15;100096.47;5013362;28;803;-65
2021/10/23 12:44:24;;;;;;;;;;;;;;;21.52;45.56;100097.28;5013077;28;854;-66
2021/10/23 12:46:51;;;;;;;;;;;;;;;21.51;45.85;100095.72;5013282;28;846;-66
2021/10/23 12:49:18;;;;;;;;;;;;;;;21.58;45.81;100097.44;4995440;28;1423;-66
2021/10/23 12:51:45;;;;;;;;;;;;;;;21.70;45.57;100104.09;5013007;28;827;-65
2021/10/23 12:54:14;;;;;;;;;;;;;;;21.74;45.78;100107.53;5012996;28;823;-66
2021/10/23 12:56:41;;;;;;;;;;;;;;;21.55;45.76;100101.16;5012979;28;834;-65
2021/10/23 12:59:10;;;;;;;;;;;;;;;21.36;46.00;100091.97;5012577;28;1882;-66
2021/10/23 13:01:37;;;;;;;;;;;;;;;21.27;46.31;100103.97;5012600;28;802;-66
2021/10/23 13:04:04;;;;;;;;;;;;;;;21.33;46.65;100098.53;5012594;28;882;-66
2021/10/23 13:06:30;;;;;;;;;;;;;;;21.45;46.67;100097.59;5012465;28;885;-66
2021/10/23 13:08:56;;;;;;;;;;;;;;;21.68;46.53;100092.56;5012552;28;881;-65
2021/10/23 13:11:23;;;;;;;;;;;;;;;21.73;46.24;100095.50;5012302;28;827;-66
2021/10/23 13:13:50;;;;;;;;;;;;;;;21.82;45.84;100100.34;5012385;28;854;-66
2021/10/23 13:16:16;;;;;;;;;;;;;;;21.78;46.03;100099.72;5012346;28;931;-66
2021/10/23 13:18:44;;;;;;;;;;;;;;;21.69;45.76;100106.16;5012105;28;1265;-66